sensor_id;sensor_type;location;lat;lon;timestamp;P1;durP1;ratioP1;P2;durP2;ratioP2
15482;SDS011;7843;50.330;7.312;2023-05-09T00:01:18;7.60;;;4.72;;
15482;SDS011;7843;50.330;7.312;2023-05-09T00:03:45;8.30;;;5.40;;
15482;SDS011;7843;50.330;7.312;2023-05-09T00:06:12;7.22;;;5.20;;
15482;SDS011;7843;50.330;7.312;2023-05-09T00:08:40;10.48;;;5.80;;
15482;SDS011;7843;50.330;7.312;2023-05-09T00:11:07;11.63;;;5.80;;
15482;SDS011;7843;50.330;7.312;2023-05-09T00:13:34;12.23;;;6.15;;
15482;SDS011;7843;50.330;7.312;2023-05-09T00:16:00;11.35;;;5.63;;
15482;SDS011;7843;50.330;7.312;2023-05-09T00:18:28;18.27;;;5.70;;
15482;SDS011;7843;50.330;7.312;2023-05-09T00:20:56;10.27;;;5.22;;
15482;SDS011;7843;50.330;7.312;2023-05-09T00:23:22;10.50;;;5.28;;
15482;SDS011;7843;50.330;7.312;2023-05-09T00:25:49;10.00;;;5.40;;
15482;SDS011;7843;50.330;7.312;2023-05-09T00:28:16;12.00;;;5.30;;
15482;SDS011;7843;50.330;7.312;2023-05-09T00:30:42;9.15;;;5.22;;
15482;SDS011;7843;50.330;7.312;2023-05-09T00:33:09;9.05;;;5.28;;
15482;SDS011;7843;50.330;7.312;2023-05-09T00:35:36;7.63;;;5.15;;
15482;SDS011;7843;50.330;7.312;2023-05-09T00:38:03;7.90;;;5.20;;
15482;SDS011;7843;50.330;7.312;2023-05-09T00:40:29;9.90;;;4.90;;
15482;SDS011;7843;50.330;7.312;2023-05-09T00:42:57;8.88;;;5.13;;
15482;SDS011;7843;50.330;7.312;2023-05-09T00:45:24;7.03;;;4.90;;
15482;SDS011;7843;50.330;7.312;2023-05-09T00:47:51;10.48;;;6.03;;
15482;SDS011;7843;50.330;7.312;2023-05-09T00:50:18;10.05;;;5.07;;
15482;SDS011;7843;50.330;7.312;2023-05-09T00:52:45;8.18;;;5.38;;
15482;SDS011;7843;50.330;7.312;2023-05-09T00:55:12;9.13;;;5.50;;
15482;SDS011;7843;50.330;7.312;2023-05-09T00:57:41;9.80;;;6.10;;
15482;SDS011;7843;50.330;7.312;2023-05-09T01:00:08;8.03;;;5.30;;
15482;SDS011;7843;50.330;7.312;2023-05-09T01:02:41;10.90;;;5.97;;
15482;SDS011;7843;50.330;7.312;2023-05-09T01:05:10;12.88;;;6.90;;
15482;SDS011;7843;50.330;7.312;2023-05-09T01:07:59;11.43;;;6.53;;
15482;SDS011;7843;50.330;7.312;2023-05-09T01:10:49;10.27;;;6.32;;
15482;SDS011;7843;50.330;7.312;2023-05-09T01:13:40;10.07;;;5.73;;
15482;SDS011;7843;50.330;7.312;2023-05-09T01:16:21;8.82;;;5.82;;
15482;SDS011;7843;50.330;7.312;2023-05-09T01:21:37;9.68;;;6.20;;
15482;SDS011;7843;50.330;7.312;2023-05-09T01:24:20;10.38;;;6.22;;
15482;SDS011;7843;50.330;7.312;2023-05-09T01:30:03;10.85;;;6.05;;
15482;SDS011;7843;50.330;7.312;2023-05-09T01:32:32;8.32;;;5.35;;
15482;SDS011;7843;50.330;7.312;2023-05-09T01:35:03;9.13;;;5.70;;
15482;SDS011;7843;50.330;7.312;2023-05-09T01:37:32;12.02;;;5.93;;
15482;SDS011;7843;50.330;7.312;2023-05-09T01:40:12;12.73;;;6.20;;
15482;SDS011;7843;50.330;7.312;2023-05-09T01:42:41;11.70;;;6.68;;
15482;SDS011;7843;50.330;7.312;2023-05-09T01:45:11;12.63;;;7.35;;
15482;SDS011;7843;50.330;7.312;2023-05-09T01:47:39;11.90;;;7.10;;
15482;SDS011;7843;50.330;7.312;2023-05-09T01:50:08;11.27;;;6.15;;
15482;SDS011;7843;50.330;7.312;2023-05-09T01:52:37;11.77;;;6.72;;
15482;SDS011;7843;50.330;7.312;2023-05-09T01:55:06;11.35;;;7.20;;
15482;SDS011;7843;50.330;7.312;2023-05-09T01:57:34;12.75;;;6.90;;
15482;SDS011;7843;50.330;7.312;2023-05-09T02:00:02;13.38;;;6.45;;
15482;SDS011;7843;50.330;7.312;2023-05-09T02:02:33;10.80;;;6.78;;
15482;SDS011;7843;50.330;7.312;2023-05-09T02:05:00;11.02;;;6.32;;
15482;SDS011;7843;50.330;7.312;2023-05-09T02:07:28;10.88;;;6.93;;
15482;SDS011;7843;50.330;7.312;2023-05-09T02:09:55;10.77;;;6.28;;
15482;SDS011;7843;50.330;7.312;2023-05-09T02:12:24;11.43;;;7.10;;
15482;SDS011;7843;50.330;7.312;2023-05-09T02:14:51;10.20;;;6.28;;
15482;SDS011;7843;50.330;7.312;2023-05-09T02:17:17;10.38;;;6.35;;
15482;SDS011;7843;50.330;7.312;2023-05-09T02:19:44;11.05;;;7.38;;
15482;SDS011;7843;50.330;7.312;2023-05-09T02:22:11;10.65;;;6.72;;
15482;SDS011;7843;50.330;7.312;2023-05-09T02:24:38;12.68;;;7.30;;
15482;SDS011;7843;50.330;7.312;2023-05-09T02:27:06;11.73;;;7.27;;
15482;SDS011;7843;50.330;7.312;2023-05-09T02:29:36;12.10;;;6.38;;
15482;SDS011;7843;50.330;7.312;2023-05-09T02:32:15;12.18;;;6.82;;
15482;SDS011;7843;50.330;7.312;2023-05-09T02:34:45;11.85;;;7.53;;
15482;SDS011;7843;50.330;7.312;2023-05-09T02:37:14;9.60;;;6.43;;
15482;SDS011;7843;50.330;7.312;2023-05-09T02:39:41;9.80;;;6.50;;
15482;SDS011;7843;50.330;7.312;2023-05-09T02:42:09;9.52;;;6.22;;
15482;SDS011;7843;50.330;7.312;2023-05-09T02:44:36;16.40;;;6.65;;
15482;SDS011;7843;50.330;7.312;2023-05-09T02:47:04;11.25;;;6.57;;
15482;SDS011;7843;50.330;7.312;2023-05-09T02:49:32;11.40;;;6.47;;
15482;SDS011;7843;50.330;7.312;2023-05-09T02:51:59;10.60;;;6.20;;
15482;SDS011;7843;50.330;7.312;2023-05-09T02:54:26;11.23;;;6.28;;
15482;SDS011;7843;50.330;7.312;2023-05-09T02:56:53;9.60;;;6.10;;
15482;SDS011;7843;50.330;7.312;2023-05-09T02:59:20;9.80;;;6.28;;
15482;SDS011;7843;50.330;7.312;2023-05-09T03:01:47;10.35;;;6.72;;
15482;SDS011;7843;50.330;7.312;2023-05-09T03:04:13;10.88;;;6.60;;
15482;SDS011;7843;50.330;7.312;2023-05-09T03:06:41;10.18;;;6.00;;
15482;SDS011;7843;50.330;7.312;2023-05-09T03:09:08;10.23;;;6.43;;
15482;SDS011;7843;50.330;7.312;2023-05-09T03:11:35;9.57;;;6.47;;
15482;SDS011;7843;50.330;7.312;2023-05-09T03:14:02;11.98;;;6.57;;
15482;SDS011;7843;50.330;7.312;2023-05-09T03:16:29;9.85;;;6.30;;
15482;SDS011;7843;50.330;7.312;2023-05-09T03:18:56;11.95;;;7.43;;
15482;SDS011;7843;50.330;7.312;2023-05-09T03:21:23;12.70;;;6.83;;
15482;SDS011;7843;50.330;7.312;2023-05-09T03:23:49;10.40;;;6.70;;
15482;SDS011;7843;50.330;7.312;2023-05-09T03:26:16;9.65;;;6.05;;
15482;SDS011;7843;50.330;7.312;2023-05-09T03:28:43;13.73;;;7.80;;
15482;SDS011;7843;50.330;7.312;2023-05-09T03:31:11;10.82;;;6.40;;
15482;SDS011;7843;50.330;7.312;2023-05-09T03:33:38;10.23;;;6.68;;
15482;SDS011;7843;50.330;7.312;2023-05-09T03:36:04;11.93;;;7.10;;
15482;SDS011;7843;50.330;7.312;2023-05-09T03:38:31;12.68;;;7.40;;
15482;SDS011;7843;50.330;7.312;2023-05-09T03:40:58;13.02;;;6.72;;
15482;SDS011;7843;50.330;7.312;2023-05-09T03:43:24;10.80;;;6.53;;
15482;SDS011;7843;50.330;7.312;2023-05-09T03:45:51;11.70;;;7.25;;
15482;SDS011;7843;50.330;7.312;2023-05-09T03:48:18;12.13;;;7.28;;
15482;SDS011;7843;50.330;7.312;2023-05-09T03:50:44;11.93;;;7.13;;
15482;SDS011;7843;50.330;7.312;2023-05-09T03:53:11;10.13;;;6.30;;
15482;SDS011;7843;50.330;7.312;2023-05-09T03:55:38;9.77;;;6.23;;
15482;SDS011;7843;50.330;7.312;2023-05-09T03:58:05;10.83;;;6.87;;
15482;SDS011;7843;50.330;7.312;2023-05-09T04:00:31;16.70;;;6.93;;
15482;SDS011;7843;50.330;7.312;2023-05-09T04:02:58;12.40;;;7.13;;
15482;SDS011;7843;50.330;7.312;2023-05-09T04:05:25;10.90;;;6.60;;
15482;SDS011;7843;50.330;7.312;2023-05-09T04:07:52;12.18;;;6.95;;
15482;SDS011;7843;50.330;7.312;2023-05-09T04:10:19;12.52;;;7.43;;
15482;SDS011;7843;50.330;7.312;2023-05-09T04:12:45;12.15;;;6.32;;
15482;SDS011;7843;50.330;7.312;2023-05-09T04:15:12;9.18;;;5.93;;
15482;SDS011;7843;50.330;7.312;2023-05-09T04:17:39;11.63;;;7.28;;
15482;SDS011;7843;50.330;7.312;2023-05-09T04:20:06;12.38;;;6.90;;
15482;SDS011;7843;50.330;7.312;2023-05-09T04:22:33;12.88;;;7.28;;
15482;SDS011;7843;50.330;7.312;2023-05-09T04:25:00;12.52;;;7.20;;
15482;SDS011;7843;50.330;7.312;2023-05-09T04:27:27;10.38;;;6.75;;
15482;SDS011;7843;50.330;7.312;2023-05-09T04:29:53;11.38;;;6.95;;
15482;SDS011;7843;50.330;7.312;2023-05-09T04:32:20;14.45;;;7.75;;
15482;SDS011;7843;50.330;7.312;2023-05-09T04:34:48;12.02;;;7.95;;
15482;SDS011;7843;50.330;7.312;2023-05-09T04:37:14;12.85;;;8.27;;
15482;SDS011;7843;50.330;7.312;2023-05-09T04:39:42;10.18;;;6.95;;
15482;SDS011;7843;50.330;7.312;2023-05-09T04:42:08;11.98;;;7.03;;
15482;SDS011;7843;50.330;7.312;2023-05-09T04:44:35;10.20;;;7.40;;
15482;SDS011;7843;50.330;7.312;2023-05-09T04:47:02;14.32;;;7.63;;
15482;SDS011;7843;50.330;7.312;2023-05-09T04:49:29;13.05;;;7.63;;
15482;SDS011;7843;50.330;7.312;2023-05-09T04:51:55;12.52;;;7.18;;
15482;SDS011;7843;50.330;7.312;2023-05-09T04:54:22;11.70;;;7.47;;
15482;SDS011;7843;50.330;7.312;2023-05-09T04:56:49;11.40;;;6.75;;
15482;SDS011;7843;50.330;7.312;2023-05-09T04:59:15;12.80;;;7.35;;
15482;SDS011;7843;50.330;7.312;2023-05-09T05:01:42;11.52;;;7.15;;
15482;SDS011;7843;50.330;7.312;2023-05-09T05:04:09;14.67;;;7.80;;
15482;SDS011;7843;50.330;7.312;2023-05-09T05:06:36;15.35;;;7.88;;
15482;SDS011;7843;50.330;7.312;2023-05-09T05:09:02;11.90;;;7.35;;
15482;SDS011;7843;50.330;7.312;2023-05-09T05:11:30;12.77;;;7.63;;
15482;SDS011;7843;50.330;7.312;2023-05-09T05:13:56;12.57;;;7.55;;
15482;SDS011;7843;50.330;7.312;2023-05-09T05:16:23;10.95;;;7.00;;
15482;SDS011;7843;50.330;7.312;2023-05-09T05:18:50;14.65;;;7.93;;
15482;SDS011;7843;50.330;7.312;2023-05-09T05:21:16;14.90;;;8.15;;
15482;SDS011;7843;50.330;7.312;2023-05-09T05:23:43;14.02;;;7.40;;
15482;SDS011;7843;50.330;7.312;2023-05-09T05:26:10;13.73;;;7.50;;
15482;SDS011;7843;50.330;7.312;2023-05-09T05:28:36;11.77;;;7.60;;
15482;SDS011;7843;50.330;7.312;2023-05-09T05:31:03;13.48;;;7.53;;
15482;SDS011;7843;50.330;7.312;2023-05-09T05:33:30;13.65;;;7.90;;
15482;SDS011;7843;50.330;7.312;2023-05-09T05:35:57;11.25;;;6.70;;
15482;SDS011;7843;50.330;7.312;2023-05-09T05:38:23;16.52;;;7.53;;
15482;SDS011;7843;50.330;7.312;2023-05-09T05:40:51;11.48;;;7.50;;
15482;SDS011;7843;50.330;7.312;2023-05-09T05:43:17;15.40;;;8.35;;
15482;SDS011;7843;50.330;7.312;2023-05-09T05:45:44;11.45;;;7.38;;
15482;SDS011;7843;50.330;7.312;2023-05-09T05:48:11;15.10;;;6.90;;
15482;SDS011;7843;50.330;7.312;2023-05-09T05:50:38;9.90;;;6.32;;
15482;SDS011;7843;50.330;7.312;2023-05-09T05:53:04;13.27;;;7.45;;
15482;SDS011;7843;50.330;7.312;2023-05-09T05:55:31;9.95;;;6.85;;
15482;SDS011;7843;50.330;7.312;2023-05-09T05:57:58;12.75;;;7.30;;
15482;SDS011;7843;50.330;7.312;2023-05-09T06:00:25;12.40;;;6.95;;
15482;SDS011;7843;50.330;7.312;2023-05-09T06:02:51;12.57;;;7.40;;
15482;SDS011;7843;50.330;7.312;2023-05-09T06:05:18;11.25;;;6.18;;
15482;SDS011;7843;50.330;7.312;2023-05-09T06:07:45;11.30;;;6.57;;
15482;SDS011;7843;50.330;7.312;2023-05-09T06:10:11;14.38;;;5.70;;
15482;SDS011;7843;50.330;7.312;2023-05-09T06:12:38;9.25;;;5.78;;
15482;SDS011;7843;50.330;7.312;2023-05-09T06:15:05;8.02;;;5.57;;
15482;SDS011;7843;50.330;7.312;2023-05-09T06:17:32;9.00;;;5.72;;
15482;SDS011;7843;50.330;7.312;2023-05-09T06:19:59;7.18;;;5.00;;
15482;SDS011;7843;50.330;7.312;2023-05-09T06:22:26;8.25;;;5.20;;
15482;SDS011;7843;50.330;7.312;2023-05-09T06:24:53;7.47;;;5.13;;
15482;SDS011;7843;50.330;7.312;2023-05-09T06:27:20;7.00;;;4.70;;
15482;SDS011;7843;50.330;7.312;2023-05-09T06:29:47;7.57;;;4.50;;
15482;SDS011;7843;50.330;7.312;2023-05-09T06:32:13;8.98;;;5.03;;
15482;SDS011;7843;50.330;7.312;2023-05-09T06:34:40;7.80;;;4.60;;
15482;SDS011;7843;50.330;7.312;2023-05-09T06:37:07;6.88;;;4.55;;
15482;SDS011;7843;50.330;7.312;2023-05-09T06:39:33;8.95;;;4.57;;
15482;SDS011;7843;50.330;7.312;2023-05-09T06:42:00;5.87;;;4.53;;
15482;SDS011;7843;50.330;7.312;2023-05-09T06:44:27;7.15;;;4.35;;
15482;SDS011;7843;50.330;7.312;2023-05-09T06:46:54;6.25;;;4.18;;
15482;SDS011;7843;50.330;7.312;2023-05-09T06:49:20;5.72;;;3.63;;
15482;SDS011;7843;50.330;7.312;2023-05-09T06:51:47;5.17;;;3.60;;
15482;SDS011;7843;50.330;7.312;2023-05-09T06:54:14;7.45;;;3.55;;
15482;SDS011;7843;50.330;7.312;2023-05-09T06:56:42;5.85;;;3.58;;
15482;SDS011;7843;50.330;7.312;2023-05-09T06:59:08;6.05;;;3.40;;
15482;SDS011;7843;50.330;7.312;2023-05-09T07:01:38;6.93;;;3.17;;
15482;SDS011;7843;50.330;7.312;2023-05-09T07:04:06;5.53;;;3.35;;
15482;SDS011;7843;50.330;7.312;2023-05-09T07:06:33;6.15;;;3.13;;
15482;SDS011;7843;50.330;7.312;2023-05-09T07:08:59;5.90;;;3.40;;
15482;SDS011;7843;50.330;7.312;2023-05-09T07:11:26;3.53;;;2.67;;
15482;SDS011;7843;50.330;7.312;2023-05-09T07:13:53;3.27;;;2.37;;
15482;SDS011;7843;50.330;7.312;2023-05-09T07:16:19;4.35;;;2.85;;
15482;SDS011;7843;50.330;7.312;2023-05-09T07:18:48;3.67;;;2.40;;
15482;SDS011;7843;50.330;7.312;2023-05-09T07:21:14;3.83;;;2.53;;
15482;SDS011;7843;50.330;7.312;2023-05-09T07:23:41;4.35;;;2.85;;
15482;SDS011;7843;50.330;7.312;2023-05-09T07:26:08;3.60;;;2.63;;
15482;SDS011;7843;50.330;7.312;2023-05-09T07:28:34;8.73;;;2.80;;
15482;SDS011;7843;50.330;7.312;2023-05-09T07:31:01;5.03;;;2.70;;
15482;SDS011;7843;50.330;7.312;2023-05-09T07:33:28;4.40;;;3.30;;
15482;SDS011;7843;50.330;7.312;2023-05-09T07:35:57;5.40;;;3.17;;
15482;SDS011;7843;50.330;7.312;2023-05-09T07:38:24;3.65;;;2.40;;
15482;SDS011;7843;50.330;7.312;2023-05-09T07:40:51;3.33;;;2.40;;
15482;SDS011;7843;50.330;7.312;2023-05-09T07:43:18;4.63;;;2.55;;
15482;SDS011;7843;50.330;7.312;2023-05-09T07:45:45;4.30;;;2.38;;
15482;SDS011;7843;50.330;7.312;2023-05-09T07:48:12;4.30;;;2.40;;
15482;SDS011;7843;50.330;7.312;2023-05-09T07:50:38;5.20;;;2.88;;
15482;SDS011;7843;50.330;7.312;2023-05-09T07:53:05;6.72;;;2.85;;
15482;SDS011;7843;50.330;7.312;2023-05-09T07:55:32;5.22;;;3.38;;
15482;SDS011;7843;50.330;7.312;2023-05-09T07:57:58;4.65;;;2.63;;
15482;SDS011;7843;50.330;7.312;2023-05-09T08:00:25;4.80;;;3.10;;
15482;SDS011;7843;50.330;7.312;2023-05-09T08:02:52;5.85;;;3.15;;
15482;SDS011;7843;50.330;7.312;2023-05-09T08:05:19;4.10;;;2.63;;
15482;SDS011;7843;50.330;7.312;2023-05-09T08:07:45;4.10;;;2.95;;
15482;SDS011;7843;50.330;7.312;2023-05-09T08:10:12;5.10;;;2.75;;
15482;SDS011;7843;50.330;7.312;2023-05-09T08:12:39;4.60;;;2.42;;
15482;SDS011;7843;50.330;7.312;2023-05-09T08:15:06;3.60;;;2.17;;
15482;SDS011;7843;50.330;7.312;2023-05-09T08:17:33;3.60;;;2.50;;
15482;SDS011;7843;50.330;7.312;2023-05-09T08:19:59;3.78;;;2.60;;
15482;SDS011;7843;50.330;7.312;2023-05-09T08:22:26;3.90;;;2.53;;
15482;SDS011;7843;50.330;7.312;2023-05-09T08:24:53;3.38;;;2.45;;
15482;SDS011;7843;50.330;7.312;2023-05-09T08:27:19;2.28;;;1.95;;
15482;SDS011;7843;50.330;7.312;2023-05-09T08:29:46;6.32;;;2.80;;
15482;SDS011;7843;50.330;7.312;2023-05-09T08:32:13;3.70;;;2.58;;
15482;SDS011;7843;50.330;7.312;2023-05-09T08:34:39;2.73;;;2.20;;
15482;SDS011;7843;50.330;7.312;2023-05-09T08:37:06;5.90;;;2.60;;
15482;SDS011;7843;50.330;7.312;2023-05-09T08:39:33;2.60;;;2.03;;
15482;SDS011;7843;50.330;7.312;2023-05-09T08:42:00;3.92;;;2.00;;
15482;SDS011;7843;50.330;7.312;2023-05-09T08:44:28;5.45;;;1.77;;
15482;SDS011;7843;50.330;7.312;2023-05-09T08:46:57;1.58;;;1.17;;
15482;SDS011;7843;50.330;7.312;2023-05-09T08:49:25;1.63;;;1.50;;
15482;SDS011;7843;50.330;7.312;2023-05-09T08:51:53;2.57;;;1.43;;
15482;SDS011;7843;50.330;7.312;2023-05-09T08:54:21;3.60;;;1.30;;
15482;SDS011;7843;50.330;7.312;2023-05-09T08:56:49;2.80;;;1.02;;
15482;SDS011;7843;50.330;7.312;2023-05-09T08:59:16;1.57;;;1.07;;
15482;SDS011;7843;50.330;7.312;2023-05-09T09:01:44;2.50;;;1.20;;
15482;SDS011;7843;50.330;7.312;2023-05-09T09:04:11;2.92;;;1.08;;
15482;SDS011;7843;50.330;7.312;2023-05-09T09:06:38;4.78;;;1.50;;
15482;SDS011;7843;50.330;7.312;2023-05-09T09:09:06;1.73;;;0.90;;
15482;SDS011;7843;50.330;7.312;2023-05-09T09:11:36;2.00;;;0.98;;
15482;SDS011;7843;50.330;7.312;2023-05-09T09:14:18;4.70;;;1.20;;
15482;SDS011;7843;50.330;7.312;2023-05-09T09:16:50;1.20;;;1.00;;
15482;SDS011;7843;50.330;7.312;2023-05-09T09:19:19;1.20;;;1.00;;
15482;SDS011;7843;50.330;7.312;2023-05-09T09:21:51;1.33;;;1.23;;
15482;SDS011;7843;50.330;7.312;2023-05-09T09:24:20;1.23;;;0.98;;
15482;SDS011;7843;50.330;7.312;2023-05-09T09:26:48;1.20;;;1.10;;
15482;SDS011;7843;50.330;7.312;2023-05-09T09:29:16;1.92;;;1.33;;
15482;SDS011;7843;50.330;7.312;2023-05-09T09:31:44;5.88;;;1.95;;
15482;SDS011;7843;50.330;7.312;2023-05-09T09:34:13;1.52;;;1.30;;
15482;SDS011;7843;50.330;7.312;2023-05-09T09:36:45;3.85;;;1.90;;
15482;SDS011;7843;50.330;7.312;2023-05-09T09:39:13;2.17;;;1.88;;
15482;SDS011;7843;50.330;7.312;2023-05-09T09:41:40;4.00;;;1.83;;
15482;SDS011;7843;50.330;7.312;2023-05-09T09:44:07;2.20;;;1.77;;
15482;SDS011;7843;50.330;7.312;2023-05-09T09:46:42;4.32;;;1.65;;
15482;SDS011;7843;50.330;7.312;2023-05-09T09:49:14;1.52;;;1.40;;
15482;SDS011;7843;50.330;7.312;2023-05-09T09:51:42;2.55;;;1.58;;
15482;SDS011;7843;50.330;7.312;2023-05-09T09:54:11;2.60;;;1.48;;
15482;SDS011;7843;50.330;7.312;2023-05-09T09:56:42;1.98;;;1.30;;
15482;SDS011;7843;50.330;7.312;2023-05-09T09:59:19;1.70;;;1.20;;
15482;SDS011;7843;50.330;7.312;2023-05-09T10:04:48;4.88;;;1.48;;
15482;SDS011;7843;50.330;7.312;2023-05-09T10:07:15;1.45;;;1.10;;
15482;SDS011;7843;50.330;7.312;2023-05-09T10:09:44;1.50;;;1.13;;
15482;SDS011;7843;50.330;7.312;2023-05-09T10:12:10;2.10;;;1.35;;
15482;SDS011;7843;50.330;7.312;2023-05-09T10:14:40;2.22;;;1.05;;
15482;SDS011;7843;50.330;7.312;2023-05-09T10:17:08;1.80;;;1.25;;
15482;SDS011;7843;50.330;7.312;2023-05-09T10:19:38;2.40;;;1.40;;
15482;SDS011;7843;50.330;7.312;2023-05-09T10:22:11;1.88;;;1.50;;
15482;SDS011;7843;50.330;7.312;2023-05-09T10:24:47;2.30;;;1.50;;
15482;SDS011;7843;50.330;7.312;2023-05-09T10:27:22;4.63;;;1.90;;
15482;SDS011;7843;50.330;7.312;2023-05-09T10:30:08;3.00;;;1.77;;
15482;SDS011;7843;50.330;7.312;2023-05-09T10:35:17;3.75;;;1.35;;
15482;SDS011;7843;50.330;7.312;2023-05-09T10:37:45;1.88;;;1.20;;
15482;SDS011;7843;50.330;7.312;2023-05-09T10:40:13;1.27;;;1.10;;
15482;SDS011;7843;50.330;7.312;2023-05-09T10:42:41;1.90;;;1.30;;
15482;SDS011;7843;50.330;7.312;2023-05-09T10:45:11;4.05;;;1.95;;
15482;SDS011;7843;50.330;7.312;2023-05-09T10:47:39;2.33;;;1.10;;
15482;SDS011;7843;50.330;7.312;2023-05-09T10:50:07;1.35;;;1.00;;
15482;SDS011;7843;50.330;7.312;2023-05-09T10:58:25;1.60;;;1.10;;
15482;SDS011;7843;50.330;7.312;2023-05-09T11:00:54;2.78;;;1.20;;
15482;SDS011;7843;50.330;7.312;2023-05-09T11:03:22;2.03;;;1.20;;
15482;SDS011;7843;50.330;7.312;2023-05-09T11:05:51;1.90;;;1.05;;
15482;SDS011;7843;50.330;7.312;2023-05-09T11:08:21;1.37;;;1.13;;
15482;SDS011;7843;50.330;7.312;2023-05-09T11:10:51;2.22;;;1.15;;
15482;SDS011;7843;50.330;7.312;2023-05-09T11:13:28;2.47;;;1.10;;
15482;SDS011;7843;50.330;7.312;2023-05-09T11:18:28;2.40;;;1.10;;
15482;SDS011;7843;50.330;7.312;2023-05-09T11:21:02;1.77;;;1.30;;
15482;SDS011;7843;50.330;7.312;2023-05-09T11:23:33;2.20;;;1.30;;
15482;SDS011;7843;50.330;7.312;2023-05-09T11:26:04;2.17;;;1.15;;
15482;SDS011;7843;50.330;7.312;2023-05-09T11:28:34;2.00;;;1.23;;
15482;SDS011;7843;50.330;7.312;2023-05-09T11:31:12;1.25;;;1.15;;
15482;SDS011;7843;50.330;7.312;2023-05-09T11:33:44;1.27;;;1.08;;
15482;SDS011;7843;50.330;7.312;2023-05-09T11:36:14;4.00;;;1.40;;
15482;SDS011;7843;50.330;7.312;2023-05-09T11:38:45;0.98;;;0.82;;
15482;SDS011;7843;50.330;7.312;2023-05-09T11:41:13;1.90;;;1.37;;
15482;SDS011;7843;50.330;7.312;2023-05-09T11:43:41;0.85;;;0.82;;
15482;SDS011;7843;50.330;7.312;2023-05-09T11:46:09;1.38;;;1.02;;
15482;SDS011;7843;50.330;7.312;2023-05-09T11:48:37;1.80;;;1.30;;
15482;SDS011;7843;50.330;7.312;2023-05-09T11:51:04;1.40;;;1.15;;
15482;SDS011;7843;50.330;7.312;2023-05-09T11:53:32;1.90;;;1.10;;
15482;SDS011;7843;50.330;7.312;2023-05-09T11:56:05;2.75;;;1.20;;
15482;SDS011;7843;50.330;7.312;2023-05-09T11:58:32;1.77;;;1.27;;
15482;SDS011;7843;50.330;7.312;2023-05-09T12:01:04;1.80;;;1.10;;
15482;SDS011;7843;50.330;7.312;2023-05-09T12:03:31;1.45;;;1.00;;
15482;SDS011;7843;50.330;7.312;2023-05-09T12:05:58;1.40;;;1.27;;
15482;SDS011;7843;50.330;7.312;2023-05-09T12:08:26;1.35;;;1.10;;
15482;SDS011;7843;50.330;7.312;2023-05-09T12:10:54;1.92;;;1.20;;
15482;SDS011;7843;50.330;7.312;2023-05-09T12:13:32;1.33;;;1.23;;
15482;SDS011;7843;50.330;7.312;2023-05-09T12:16:00;1.80;;;1.30;;
15482;SDS011;7843;50.330;7.312;2023-05-09T12:18:27;1.42;;;1.08;;
15482;SDS011;7843;50.330;7.312;2023-05-09T12:20:54;1.30;;;0.97;;
15482;SDS011;7843;50.330;7.312;2023-05-09T12:23:21;1.42;;;1.17;;
15482;SDS011;7843;50.330;7.312;2023-05-09T12:25:51;1.90;;;1.10;;
15482;SDS011;7843;50.330;7.312;2023-05-09T12:28:22;2.45;;;1.30;;
15482;SDS011;7843;50.330;7.312;2023-05-09T12:30:50;1.92;;;1.13;;
15482;SDS011;7843;50.330;7.312;2023-05-09T12:33:18;1.90;;;1.45;;
15482;SDS011;7843;50.330;7.312;2023-05-09T12:35:46;1.40;;;1.10;;
15482;SDS011;7843;50.330;7.312;2023-05-09T12:38:14;2.20;;;1.60;;
15482;SDS011;7843;50.330;7.312;2023-05-09T12:40:47;2.70;;;1.30;;
15482;SDS011;7843;50.330;7.312;2023-05-09T12:43:15;1.98;;;1.40;;
15482;SDS011;7843;50.330;7.312;2023-05-09T12:45:42;2.15;;;1.10;;
15482;SDS011;7843;50.330;7.312;2023-05-09T12:48:09;1.40;;;1.30;;
15482;SDS011;7843;50.330;7.312;2023-05-09T12:50:36;1.42;;;1.00;;
15482;SDS011;7843;50.330;7.312;2023-05-09T12:53:03;1.93;;;1.10;;
15482;SDS011;7843;50.330;7.312;2023-05-09T12:55:37;1.45;;;1.20;;
15482;SDS011;7843;50.330;7.312;2023-05-09T12:58:05;2.00;;;1.33;;
15482;SDS011;7843;50.330;7.312;2023-05-09T13:00:43;2.05;;;1.30;;
15482;SDS011;7843;50.330;7.312;2023-05-09T13:06:11;1.58;;;1.38;;
15482;SDS011;7843;50.330;7.312;2023-05-09T13:08:39;2.43;;;1.20;;
15482;SDS011;7843;50.330;7.312;2023-05-09T13:11:09;2.60;;;1.27;;
15482;SDS011;7843;50.330;7.312;2023-05-09T13:13:41;1.63;;;1.20;;
15482;SDS011;7843;50.330;7.312;2023-05-09T13:16:08;2.45;;;1.08;;
15482;SDS011;7843;50.330;7.312;2023-05-09T13:18:35;1.42;;;1.02;;
15482;SDS011;7843;50.330;7.312;2023-05-09T13:21:02;1.42;;;1.00;;
15482;SDS011;7843;50.330;7.312;2023-05-09T13:23:29;2.35;;;1.50;;
15482;SDS011;7843;50.330;7.312;2023-05-09T13:25:55;1.90;;;1.40;;
15482;SDS011;7843;50.330;7.312;2023-05-09T13:28:22;1.85;;;1.33;;
15482;SDS011;7843;50.330;7.312;2023-05-09T13:30:49;2.17;;;1.10;;
15482;SDS011;7843;50.330;7.312;2023-05-09T13:33:15;3.15;;;1.05;;
15482;SDS011;7843;50.330;7.312;2023-05-09T13:35:49;1.13;;;1.00;;
15482;SDS011;7843;50.330;7.312;2023-05-09T13:38:16;1.90;;;1.25;;
15482;SDS011;7843;50.330;7.312;2023-05-09T13:40:43;1.70;;;1.20;;
15482;SDS011;7843;50.330;7.312;2023-05-09T13:43:09;2.70;;;1.47;;
15482;SDS011;7843;50.330;7.312;2023-05-09T13:45:36;1.70;;;1.42;;
15482;SDS011;7843;50.330;7.312;2023-05-09T13:48:03;1.83;;;1.23;;
15482;SDS011;7843;50.330;7.312;2023-05-09T13:50:30;3.10;;;1.10;;
15482;SDS011;7843;50.330;7.312;2023-05-09T13:52:56;3.28;;;1.10;;
15482;SDS011;7843;50.330;7.312;2023-05-09T13:55:23;1.60;;;1.10;;
15482;SDS011;7843;50.330;7.312;2023-05-09T13:57:52;1.42;;;1.20;;
15482;SDS011;7843;50.330;7.312;2023-05-09T14:00:18;2.65;;;1.38;;
15482;SDS011;7843;50.330;7.312;2023-05-09T14:02:46;2.72;;;1.40;;
15482;SDS011;7843;50.330;7.312;2023-05-09T14:05:13;3.67;;;1.73;;
15482;SDS011;7843;50.330;7.312;2023-05-09T14:07:39;4.68;;;1.73;;
15482;SDS011;7843;50.330;7.312;2023-05-09T14:10:06;3.53;;;1.60;;
15482;SDS011;7843;50.330;7.312;2023-05-09T14:12:36;4.18;;;1.92;;
15482;SDS011;7843;50.330;7.312;2023-05-09T14:15:05;3.58;;;1.52;;
15482;SDS011;7843;50.330;7.312;2023-05-09T14:17:33;2.22;;;1.50;;
15482;SDS011;7843;50.330;7.312;2023-05-09T14:20:00;2.85;;;1.65;;
15482;SDS011;7843;50.330;7.312;2023-05-09T14:22:26;4.20;;;1.58;;
15482;SDS011;7843;50.330;7.312;2023-05-09T14:24:53;3.53;;;1.60;;
15482;SDS011;7843;50.330;7.312;2023-05-09T14:27:22;1.58;;;1.33;;
15482;SDS011;7843;50.330;7.312;2023-05-09T14:29:50;2.73;;;1.47;;
15482;SDS011;7843;50.330;7.312;2023-05-09T14:32:16;3.60;;;1.25;;
15482;SDS011;7843;50.330;7.312;2023-05-09T14:34:43;2.33;;;1.65;;
15482;SDS011;7843;50.330;7.312;2023-05-09T14:37:10;1.85;;;1.33;;
15482;SDS011;7843;50.330;7.312;2023-05-09T14:39:40;1.63;;;1.50;;
15482;SDS011;7843;50.330;7.312;2023-05-09T14:42:07;1.88;;;1.35;;
15482;SDS011;7843;50.330;7.312;2023-05-09T14:44:36;2.43;;;1.63;;
15482;SDS011;7843;50.330;7.312;2023-05-09T14:47:03;3.15;;;1.90;;
15482;SDS011;7843;50.330;7.312;2023-05-09T14:49:30;2.63;;;1.75;;
15482;SDS011;7843;50.330;7.312;2023-05-09T14:51:57;1.53;;;1.27;;
15482;SDS011;7843;50.330;7.312;2023-05-09T14:54:24;2.07;;;1.43;;
15482;SDS011;7843;50.330;7.312;2023-05-09T14:56:51;2.10;;;1.23;;
15482;SDS011;7843;50.330;7.312;2023-05-09T14:59:18;5.03;;;1.80;;
15482;SDS011;7843;50.330;7.312;2023-05-09T15:01:45;2.05;;;1.20;;
15482;SDS011;7843;50.330;7.312;2023-05-09T15:04:12;3.65;;;2.08;;
15482;SDS011;7843;50.330;7.312;2023-05-09T15:06:38;2.90;;;1.30;;
15482;SDS011;7843;50.330;7.312;2023-05-09T15:09:06;2.60;;;1.35;;
15482;SDS011;7843;50.330;7.312;2023-05-09T15:11:32;2.33;;;1.23;;
15482;SDS011;7843;50.330;7.312;2023-05-09T15:14:08;2.63;;;1.17;;
15482;SDS011;7843;50.330;7.312;2023-05-09T15:16:35;3.13;;;1.48;;
15482;SDS011;7843;50.330;7.312;2023-05-09T15:19:02;2.00;;;1.30;;
15482;SDS011;7843;50.330;7.312;2023-05-09T15:21:30;2.88;;;1.80;;
15482;SDS011;7843;50.330;7.312;2023-05-09T15:23:57;3.40;;;1.40;;
15482;SDS011;7843;50.330;7.312;2023-05-09T15:26:24;1.50;;;1.23;;